Impacts TAF Board INFO
FOR SITUATIONAL AWARENESS. NOT TO BE USED FOR FLIGHT PLANNING PURPOSES.
IDs:

KCVG - Cincinnati Intl, KY, US

Issued at 1457 UTC 26 Apr 2018
Updated at 1719 UTC 26 Apr 2018
Potential Impact None Slight Moderate High
Time<<27/18Z 27/19Z 27/20Z 27/21Z 27/22Z 27/23Z 28/00Z 28/01Z 28/02Z 28/03Z 28/04Z 28/05Z 28/06Z
Type
VIS
CIG
Cover
FltCat
WX
WDir
WSpd
WGst

Raw TAF
KCVG 261457Z 2615/2718 08004KT P6SM FEW050 SCT300
  FM270000 31004KT P6SM FEW050 BKN150
  FM271300 26009KT P6SM SCT050 BKN150


METAR Board
Radar Display
Forecast Discussion

FOR SITUATIONAL AWARENESS. NOT TO BE USED FOR FLIGHT PLANNING PURPOSES.